الصفحة الرئيسية
METAR-TAF:

METAR-TAF

مطار :

Nowra, أستراليا

دائرة عرض: 34-57S, خط طول: 150-32E, ارتفاع: 122 متر

مراقبة الطقس الحالي

تاريخ ووقت الإصدار 38 دقيقة قبل الساعة 19:00UTC
ريح 11 عقدة من الجنوب
درجة الحرارة 12°درجة مئوية
الرطوبة 94%
ضغط 1022 hPa
الرؤية 10 كم أو أكثر
غيوم متفرقة على ارتفاع 2200 قدم
غيوم مفككة على ارتفاع 2900 قدم
غيوم مفككة على ارتفاع 8900 قدم

METAR: YSNW 251900Z AUTO 19011KT 9999 // SCT022 BKN029 BKN089 12/11 Q1022

زمن: 05:38 (19:38 UTC)


TAF: مفقودة

أرصاد الطقس والتوقعات من أكثر من 4000 مطار (تقارير الطقس للمطار METAR والتنبؤ بالطقس بالمطارTAF).

المحطات المتاحة هي النقط الصفراء والحمراء على الخريطة.

حرك المؤشر فوق النقطة لمعرفة اسم المحطة.

ثم انقر لمعرفة أرصاد وتوقعات الطقس.

لتغيير الخارطة: اضغط على الأزرار الخضراء مع رمز الصليب الأسود للتكبير. على الزر الأخضر مع شرطة للتصغير، أو على الأسهم الخضراء للخرائط المجاورة.


METAR-TAF: